createdAt,value
2016-11-07T09:57:50.885Z,10
2016-11-07T09:58:59.501Z,10
2016-11-07T10:00:08.138Z,5
2016-11-07T11:10:44.376Z,200
2016-11-07T11:11:53.042Z,215
2016-11-07T11:13:02.042Z,210
2016-11-07T11:14:10.651Z,200
2016-11-07T11:15:19.575Z,200
2016-11-07T11:16:28.669Z,200
2016-11-07T11:17:37.620Z,195
2016-11-07T11:18:46.231Z,195
2016-11-07T11:19:54.845Z,190
2016-11-07T11:21:04.102Z,195
2016-11-07T11:22:13.367Z,195
2016-11-07T11:23:21.990Z,200
2016-11-07T11:24:31.895Z,205
2016-11-07T11:25:40.842Z,200
2016-11-07T11:26:50.491Z,195
2016-11-07T11:27:59.116Z,200
2016-11-07T11:29:08.082Z,210
2016-11-07T11:30:16.709Z,220
2016-11-07T11:31:25.635Z,225
2016-11-07T11:32:34.969Z,225
2016-11-07T11:33:44.224Z,235
2016-11-07T11:34:53.196Z,265
2016-11-07T11:36:02.151Z,290
2016-11-07T11:37:11.100Z,310
2016-11-07T11:38:19.703Z,335
2016-11-07T11:39:28.316Z,360
2016-11-07T11:40:37.940Z,360
2016-11-07T11:41:46.557Z,355
2016-11-07T11:42:55.325Z,340
2016-11-07T11:44:04.584Z,335
2016-11-07T11:45:13.848Z,320
2016-11-07T11:46:22.783Z,310
2016-11-07T11:47:32.362Z,305
2016-11-07T11:48:41.353Z,320
2016-11-07T11:49:50.657Z,330
2016-11-07T11:50:59.278Z,330
2016-11-07T11:52:08.557Z,315
2016-11-07T11:53:17.834Z,305
2016-11-07T11:54:26.501Z,295
2016-11-07T11:55:35.454Z,290
2016-11-07T11:56:44.413Z,285
2016-11-07T11:57:53.725Z,295
2016-11-07T11:59:03.002Z,310
2016-11-07T12:00:12.153Z,320
2016-11-07T12:01:21.451Z,325
2016-11-07T12:02:30.451Z,330
2016-11-07T12:03:39.774Z,325
2016-11-07T12:04:48.751Z,320
2016-11-07T12:05:57.576Z,315
2016-11-07T12:07:06.203Z,310
2016-11-07T12:08:14.822Z,310
2016-11-07T12:09:24.098Z,310
2016-11-07T12:10:33.354Z,325
2016-11-07T12:11:43.128Z,335
2016-11-07T12:12:52.369Z,340
2016-11-07T12:14:01.641Z,345
2016-11-07T12:15:11.222Z,340
2016-11-07T12:16:20.480Z,340
2016-11-07T12:17:29.187Z,340
2016-11-07T12:18:38.171Z,330
2016-11-07T12:19:47.120Z,325
2016-11-07T12:20:56.052Z,320
2016-11-07T12:22:05.324Z,310
2016-11-07T12:23:13.989Z,300
2016-11-07T12:24:22.974Z,290
2016-11-07T12:25:31.907Z,280
2016-11-07T12:26:40.526Z,280
2016-11-07T12:27:49.135Z,285
2016-11-07T12:28:58.130Z,280
2016-11-07T12:30:07.091Z,265
2016-11-07T12:31:16.037Z,250
2016-11-07T12:32:24.651Z,240
2016-11-07T12:33:33.917Z,240
2016-11-07T12:34:43.051Z,235
2016-11-07T12:35:51.663Z,230
2016-11-07T12:37:00.616Z,230
2016-11-07T12:38:09.874Z,230
2016-11-07T12:39:19.777Z,225
2016-11-07T12:40:29.206Z,230
2016-11-07T12:41:38.152Z,250
2016-11-07T12:42:46.852Z,295
2016-11-07T12:43:55.818Z,320
2016-11-07T12:45:05.063Z,335
2016-11-07T12:46:14.050Z,350
2016-11-07T12:47:22.992Z,345
2016-11-07T12:48:31.596Z,355
2016-11-07T12:49:40.521Z,350
2016-11-07T12:50:50.102Z,330
2016-11-07T12:51:58.706Z,310
2016-11-07T12:53:07.329Z,280
2016-11-07T12:54:15.939Z,285
2016-11-07T12:55:24.580Z,295
2016-11-07T12:56:33.299Z,310
2016-11-07T12:57:42.264Z,335
2016-11-07T12:58:50.881Z,350
2016-11-07T12:59:59.496Z,370
2016-11-07T13:01:08.768Z,370
2016-11-07T13:02:17.764Z,355
2016-11-07T13:03:26.380Z,350
2016-11-07T13:04:35.968Z,340
2016-11-07T13:05:45.269Z,340
2016-11-07T13:06:53.884Z,335
2016-11-07T13:08:03.148Z,315
2016-11-07T13:09:12.091Z,300
2016-11-07T13:10:21.037Z,285
2016-11-07T13:11:29.651Z,260
2016-11-07T13:12:39.234Z,235
2016-11-07T13:13:48.883Z,225
2016-11-07T13:14:58.152Z,235
2016-11-07T13:16:07.089Z,255
2016-11-07T13:17:16.349Z,255
2016-11-07T13:18:25.596Z,235
2016-11-07T13:19:34.268Z,220
2016-11-07T13:20:43.202Z,225
2016-11-07T13:21:51.822Z,235
2016-11-07T13:23:00.440Z,230
2016-11-07T13:24:09.074Z,230
2016-11-07T13:25:18.215Z,225
2016-11-07T13:26:27.852Z,225
2016-11-07T13:27:36.790Z,215
2016-11-07T13:28:45.412Z,215
2016-11-07T13:29:54.672Z,200
2016-11-07T13:31:03.816Z,195
2016-11-07T13:32:12.779Z,185
2016-11-07T13:33:22.479Z,175
2016-11-07T13:34:31.174Z,175
2016-11-07T13:35:40.446Z,170
2016-11-07T13:36:49.259Z,170
2016-11-07T13:37:57.866Z,165
2016-11-07T13:39:06.808Z,165
2016-11-07T13:40:16.064Z,170
2016-11-07T13:41:25.014Z,165
2016-11-07T13:42:34.407Z,160
2016-11-07T13:43:43.015Z,165
2016-11-07T13:44:51.946Z,170
2016-11-07T13:46:01.530Z,165
2016-11-07T13:47:10.131Z,155
2016-11-07T13:48:19.592Z,145
2016-11-07T13:49:29.171Z,135
2016-11-07T13:50:37.797Z,135
2016-11-07T13:51:47.046Z,150
2016-11-07T13:52:56.010Z,165
2016-11-07T13:54:04.858Z,170
2016-11-07T13:55:13.812Z,175
2016-11-07T13:56:22.796Z,170
2016-11-07T13:57:31.733Z,165
2016-11-07T13:58:40.347Z,155
2016-11-07T13:59:49.582Z,145
2016-11-07T14:00:58.527Z,125
2016-11-07T14:02:07.535Z,130
2016-11-07T14:03:16.467Z,140
2016-11-07T14:04:25.723Z,135
2016-11-07T14:05:34.728Z,125
2016-11-07T14:06:44.324Z,120
2016-11-07T14:07:52.946Z,110
2016-11-07T14:09:01.934Z,110
2016-11-07T14:10:11.543Z,105
2016-11-07T14:11:20.732Z,100
2016-11-07T14:12:29.345Z,100
2016-11-07T14:13:38.275Z,100
2016-11-07T14:14:46.905Z,95
2016-11-07T14:15:55.532Z,100
2016-11-07T14:17:04.898Z,105
2016-11-07T14:18:13.835Z,100
2016-11-07T14:19:22.816Z,95
2016-11-07T14:20:31.755Z,100
2016-11-07T14:21:41.031Z,100
2016-11-07T14:22:50.497Z,95
2016-11-07T14:23:59.450Z,95
2016-11-07T14:25:08.381Z,90
2016-11-07T14:26:17.281Z,75
2016-11-07T14:27:26.239Z,70
2016-11-07T14:28:35.473Z,70
2016-11-07T14:29:44.421Z,65
2016-11-07T14:30:53.040Z,60
2016-11-07T14:32:02.304Z,60
2016-11-07T14:33:10.924Z,55
2016-11-07T14:34:20.653Z,50
2016-11-07T14:35:29.273Z,50
2016-11-07T14:36:37.890Z,50
2016-11-07T14:37:46.495Z,50
2016-11-07T14:38:55.432Z,50
2016-11-07T14:40:04.439Z,45
2016-11-07T14:41:13.728Z,45
2016-11-07T14:42:22.711Z,45
2016-11-07T14:43:31.971Z,40
2016-11-07T14:44:41.229Z,40
2016-11-07T14:45:50.273Z,40
2016-11-07T14:46:58.891Z,40
2016-11-07T14:48:08.150Z,40
2016-11-07T14:49:17.075Z,40
2016-11-07T14:50:25.670Z,35
2016-11-07T14:51:34.384Z,35
2016-11-07T14:52:43.324Z,30
2016-11-07T14:53:52.281Z,30
2016-11-07T14:55:00.890Z,30
2016-11-07T14:56:09.837Z,30
2016-11-07T14:57:19.159Z,30
2016-11-07T14:58:28.742Z,30
2016-11-07T14:59:37.682Z,30
2016-11-07T15:00:46.295Z,30
2016-11-07T15:01:55.268Z,25
2016-11-07T15:03:04.496Z,25
2016-11-07T15:04:13.438Z,25
2016-11-07T15:05:22.358Z,25
2016-11-07T15:06:31.297Z,20
2016-11-07T15:07:40.233Z,20
2016-11-07T15:08:50.118Z,20
2016-11-07T15:09:59.041Z,15
2016-11-07T15:11:07.662Z,15
2016-11-07T15:12:16.975Z,15
2016-11-07T15:13:25.595Z,15
2016-11-07T15:14:34.905Z,15
2016-11-07T15:15:44.485Z,15
2016-11-07T15:16:53.097Z,15
2016-11-07T15:18:02.359Z,10
2016-11-07T15:19:11.284Z,10
2016-11-07T15:20:20.577Z,10
2016-11-07T15:21:29.512Z,10
2016-11-07T15:22:38.111Z,10
2016-11-07T15:23:47.052Z,10
2016-11-07T15:24:56.312Z,10
2016-11-07T15:26:05.620Z,10
2016-11-07T15:27:14.904Z,10
2016-11-07T15:28:23.513Z,10
2016-11-07T15:29:32.127Z,10
2016-11-07T15:30:41.089Z,10
2016-11-07T15:31:50.710Z,10
2016-11-07T15:32:59.320Z,5
2016-11-07T15:34:08.580Z,5
2016-11-07T15:35:17.204Z,5
2016-11-07T15:36:26.142Z,5
2016-11-07T15:37:34.804Z,5
2016-11-07T15:38:43.753Z,5
2016-11-07T15:39:52.387Z,5
2016-11-07T15:41:01.325Z,5
2016-11-07T15:42:10.265Z,5
2016-11-07T15:43:19.556Z,5
2016-11-07T15:44:28.179Z,5
2016-11-07T15:45:36.790Z,0
2016-11-07T15:46:45.404Z,0
2016-11-07T15:47:54.013Z,0
2016-11-07T15:49:02.690Z,0
2016-11-07T15:50:11.623Z,0
2016-11-07T15:51:20.877Z,0
2016-11-07T15:52:29.494Z,0
2016-11-07T15:53:38.097Z,0
2016-11-07T15:54:47.508Z,0
2016-11-07T15:55:56.441Z,0
2016-11-07T15:57:05.111Z,0
2016-11-07T15:58:13.728Z,0
2016-11-07T15:59:22.679Z,0
2016-11-07T16:00:32.307Z,0
2016-11-07T16:01:40.915Z,0
2016-11-07T16:02:49.544Z,0
2016-11-07T16:03:58.806Z,0
2016-11-07T16:05:07.745Z,0
2016-11-07T16:06:17.112Z,0
2016-11-07T16:07:25.738Z,0
2016-11-07T16:08:34.348Z,0
2016-11-07T16:09:43.282Z,0
2016-11-07T16:10:52.224Z,0
2016-11-07T16:12:01.203Z,0
2016-11-07T16:13:10.124Z,0
2016-11-07T16:14:19.091Z,0
2016-11-07T16:15:27.703Z,0
2016-11-07T16:16:36.950Z,0
2016-11-07T16:17:46.044Z,0
2016-11-07T16:18:55.625Z,0
2016-11-07T16:20:04.888Z,0
2016-11-07T16:21:14.465Z,0
2016-11-07T16:22:23.729Z,0
2016-11-07T16:23:32.398Z,0
2016-11-07T16:24:41.644Z,0
2016-11-07T16:25:50.591Z,0
2016-11-07T16:26:59.539Z,0
2016-11-07T16:28:08.480Z,0
2016-11-07T16:29:17.475Z,0
2016-11-07T16:30:27.057Z,0
2016-11-07T16:31:35.991Z,0
2016-11-07T16:32:44.607Z,0
2016-11-07T16:33:53.862Z,0
2016-11-07T16:35:02.669Z,0
2016-11-07T16:36:11.286Z,0
2016-11-07T16:37:19.919Z,0
2016-11-07T16:38:29.490Z,0
2016-11-07T16:39:38.426Z,0
2016-11-07T16:40:47.520Z,0
2016-11-07T16:41:56.460Z,0
2016-11-07T16:43:05.389Z,0
2016-11-07T16:44:14.007Z,0
2016-11-07T16:45:22.603Z,0
2016-11-07T16:46:31.686Z,0
2016-11-07T16:47:40.619Z,0
2016-11-07T16:48:49.229Z,0
2016-11-07T16:49:58.195Z,0
2016-11-07T16:51:07.135Z,0
2016-11-07T16:52:16.119Z,0
2016-11-07T16:53:25.058Z,0
2016-11-07T16:54:34.298Z,0
2016-11-07T16:55:42.908Z,0
2016-11-07T16:56:52.519Z,0
2016-11-07T16:58:01.177Z,0
2016-11-07T16:59:09.790Z,0
2016-11-07T17:00:18.732Z,0
2016-11-07T17:01:27.676Z,0
2016-11-07T17:02:36.306Z,0
2016-11-07T17:03:45.446Z,0
2016-11-07T17:04:54.070Z,0
2016-11-07T17:06:02.689Z,0
2016-11-07T17:07:11.973Z,0
2016-11-07T17:08:20.910Z,0
2016-11-07T17:09:30.653Z,0
2016-11-07T17:10:39.272Z,0
2016-11-07T17:11:48.577Z,0
2016-11-07T17:12:57.837Z,0
2016-11-07T17:14:06.448Z,0
2016-11-07T17:15:15.465Z,0
2016-11-07T17:16:24.401Z,0
2016-11-07T17:17:33.320Z,0
2016-11-07T17:18:42.574Z,0
2016-11-07T17:19:51.826Z,0
2016-11-07T17:21:00.744Z,0
2016-11-07T17:22:09.350Z,0
2016-11-07T17:23:18.723Z,0
2016-11-07T17:24:27.343Z,0
2016-11-07T17:25:36.925Z,0
2016-11-07T17:26:46.485Z,0
2016-11-07T17:27:55.093Z,0
2016-11-07T17:29:04.032Z,0
2016-11-07T17:30:12.969Z,0
2016-11-07T17:31:22.217Z,0
2016-11-07T17:32:31.448Z,0
2016-11-07T17:33:40.374Z,0
2016-11-07T17:34:49.629Z,0
2016-11-07T17:35:58.892Z,0
2016-11-07T17:37:07.506Z,0
2016-11-07T17:38:16.368Z,0
2016-11-07T17:39:25.310Z,0
2016-11-07T17:40:34.241Z,0
2016-11-07T17:41:43.181Z,0
2016-11-07T17:42:52.122Z,0
2016-11-07T17:44:01.255Z,0
2016-11-07T17:45:10.185Z,0
2016-11-07T17:46:19.120Z,0
2016-11-07T17:47:28.102Z,0
2016-11-07T17:48:37.364Z,0
2016-11-07T17:49:46.351Z,0
2016-11-07T17:50:55.282Z,0
2016-11-07T17:52:04.219Z,0
2016-11-07T17:53:12.825Z,0
2016-11-07T17:54:22.084Z,0
2016-11-07T17:55:31.261Z,0
2016-11-07T17:56:39.867Z,0
2016-11-07T17:57:48.490Z,0
2016-11-07T17:58:57.436Z,0
2016-11-07T18:00:06.376Z,0
2016-11-07T18:01:15.501Z,0
2016-11-07T18:02:25.080Z,0
2016-11-07T18:03:34.344Z,0
2016-11-07T18:04:43.605Z,0
2016-11-07T18:05:52.866Z,0
2016-11-07T18:07:02.009Z,0
2016-11-07T18:08:10.956Z,0
2016-11-07T18:09:19.576Z,0
2016-11-07T18:10:28.514Z,0
2016-11-07T18:11:37.123Z,0
2016-11-07T18:12:46.105Z,0
2016-11-07T18:13:55.046Z,0
2016-11-07T18:15:03.986Z,0
2016-11-07T18:16:12.907Z,0
2016-11-07T18:17:21.835Z,0
2016-11-07T18:18:31.154Z,0
2016-11-07T18:19:39.780Z,0
2016-11-07T18:20:49.045Z,0
2016-11-07T18:21:58.315Z,0
2016-11-07T18:23:07.256Z,0
2016-11-07T18:24:16.579Z,0
2016-11-07T18:25:25.188Z,0
2016-11-07T18:26:33.793Z,0
2016-11-07T18:27:43.369Z,0
2016-11-07T18:28:52.307Z,0
2016-11-07T18:30:01.132Z,0
2016-11-07T18:31:10.058Z,0
2016-11-07T18:32:19.326Z,0
2016-11-07T18:33:28.264Z,0
2016-11-07T18:34:36.888Z,0
2016-11-07T18:35:45.974Z,0
2016-11-07T18:36:54.576Z,0
2016-11-07T18:38:03.516Z,0
2016-11-07T18:39:12.131Z,0
2016-11-07T18:40:21.068Z,0
2016-11-07T18:41:29.733Z,0
2016-11-07T18:42:38.681Z,0
2016-11-07T18:43:47.294Z,0
2016-11-07T18:44:56.231Z,0
2016-11-07T18:46:05.173Z,0
2016-11-07T18:47:13.821Z,0
2016-11-07T18:48:22.435Z,0
2016-11-07T18:49:31.045Z,0
2016-11-07T18:50:40.310Z,0
2016-11-07T18:51:49.255Z,0
2016-11-07T18:52:58.241Z,0
2016-11-07T18:54:07.174Z,0
2016-11-07T18:55:15.879Z,0
2016-11-07T18:56:24.831Z,0
2016-11-07T18:57:33.755Z,0
2016-11-07T18:58:43.093Z,0
2016-11-07T18:59:52.345Z,0
2016-11-07T19:01:01.285Z,0
2016-11-07T19:02:10.208Z,0
2016-11-07T19:03:18.808Z,0
2016-11-07T19:04:27.720Z,0
2016-11-07T19:05:36.327Z,0
2016-11-07T19:06:45.271Z,0
2016-11-07T19:07:54.201Z,0
2016-11-07T19:09:02.805Z,0
2016-11-07T19:10:11.789Z,0
2016-11-07T19:11:21.045Z,0
2016-11-07T19:12:29.655Z,0
2016-11-07T19:13:38.918Z,0
2016-11-07T19:14:47.849Z,0
2016-11-07T19:15:56.519Z,0
2016-11-07T19:17:05.452Z,0
2016-11-07T19:18:14.057Z,0
2016-11-07T19:19:23.317Z,0
2016-11-07T19:20:32.258Z,0
2016-11-07T19:21:41.770Z,0
2016-11-07T19:22:51.751Z,0
2016-11-07T19:24:00.369Z,0
2016-11-07T19:25:08.979Z,0
2016-11-07T19:26:17.908Z,0
2016-11-07T19:27:27.220Z,0
2016-11-07T19:28:36.166Z,0
2016-11-07T19:29:45.095Z,0
2016-11-07T19:30:54.354Z,0
2016-11-07T19:32:03.930Z,0
2016-11-07T19:33:12.642Z,0
2016-11-07T19:34:21.907Z,0
2016-11-07T19:35:30.510Z,0
2016-11-07T19:36:39.455Z,0
2016-11-07T19:37:48.391Z,0
2016-11-07T19:38:57.807Z,0
2016-11-07T19:40:06.415Z,0
2016-11-07T19:41:15.680Z,0
2016-11-07T19:42:24.627Z,0
2016-11-07T19:43:33.230Z,0
2016-11-07T19:44:42.530Z,0
2016-11-07T19:45:51.467Z,0
2016-11-07T19:47:00.067Z,0
2016-11-07T19:48:08.670Z,0
2016-11-07T19:49:17.272Z,0
2016-11-07T19:50:25.931Z,0
2016-11-07T19:51:34.862Z,0
2016-11-07T19:52:43.806Z,0
2016-11-07T19:53:53.056Z,0
2016-11-07T19:55:01.994Z,0
2016-11-07T19:56:11.019Z,0
2016-11-07T19:57:19.958Z,0
2016-11-07T19:58:28.893Z,0
2016-11-07T19:59:37.824Z,0
2016-11-07T20:00:46.435Z,0
2016-11-07T20:01:55.780Z,0
2016-11-07T20:03:04.708Z,0
2016-11-07T20:04:13.675Z,0
2016-11-07T20:05:22.288Z,0
2016-11-07T20:06:31.859Z,0
2016-11-07T20:07:40.851Z,0
2016-11-07T20:08:49.787Z,0
2016-11-07T20:09:59.038Z,0
2016-11-07T20:11:07.660Z,0
2016-11-07T20:12:16.281Z,0
2016-11-07T20:13:25.589Z,0
2016-11-07T20:14:34.192Z,0
2016-11-07T20:15:43.127Z,0
2016-11-07T20:16:52.057Z,0
2016-11-07T20:18:01.320Z,0
2016-11-07T20:19:10.341Z,0
2016-11-07T20:20:19.286Z,0
2016-11-07T20:21:28.229Z,0
2016-11-07T20:22:37.163Z,0
2016-11-07T20:23:45.773Z,0
2016-11-07T20:24:54.427Z,0
2016-11-07T20:26:03.047Z,0
2016-11-07T20:27:12.312Z,0
2016-11-07T20:28:21.252Z,0
2016-11-07T20:29:29.861Z,0
2016-11-07T20:30:38.893Z,0
2016-11-07T20:31:48.460Z,0
2016-11-07T20:32:57.702Z,0
2016-11-07T20:34:06.321Z,0
2016-11-07T20:35:15.253Z,0
2016-11-07T20:36:24.239Z,0
2016-11-07T20:37:33.842Z,0
2016-11-07T20:38:43.090Z,0
2016-11-07T20:39:52.017Z,0
2016-11-07T20:41:00.675Z,0
2016-11-07T20:42:09.666Z,0
2016-11-07T20:43:18.285Z,0
2016-11-07T20:44:27.208Z,0
2016-11-07T20:45:36.136Z,0
2016-11-07T20:46:45.072Z,0
2016-11-07T20:47:53.839Z,0
2016-11-07T20:49:02.785Z,0
2016-11-07T20:50:11.393Z,0
2016-11-07T20:51:20.002Z,0
2016-11-07T20:52:28.935Z,0
2016-11-07T20:53:37.922Z,0
2016-11-07T20:54:46.850Z,0
2016-11-07T20:55:56.423Z,0
2016-11-07T20:57:05.680Z,0
2016-11-07T20:58:14.928Z,0
2016-11-07T20:59:24.392Z,0
2016-11-07T21:00:33.646Z,0
2016-11-07T21:01:42.748Z,0
2016-11-07T21:02:51.688Z,0
2016-11-07T21:04:00.285Z,0
2016-11-07T21:05:09.048Z,0
2016-11-07T21:06:18.304Z,0
2016-11-07T21:07:27.577Z,0
2016-11-07T21:08:36.837Z,0
2016-11-07T21:09:45.453Z,0
2016-11-07T21:10:54.155Z,0
2016-11-07T21:12:03.122Z,0
2016-11-07T21:13:12.380Z,0
2016-11-07T21:14:21.950Z,0
2016-11-07T21:15:30.879Z,0
2016-11-07T21:16:39.544Z,0
2016-11-07T21:17:49.120Z,0
2016-11-07T21:18:57.729Z,0
2016-11-07T21:20:06.349Z,0
2016-11-07T21:21:15.931Z,0
2016-11-07T21:22:24.598Z,0
2016-11-07T21:23:33.206Z,0
2016-11-07T21:24:41.818Z,0
2016-11-07T21:25:50.434Z,0
2016-11-07T21:26:59.365Z,0
2016-11-07T21:28:08.824Z,0
2016-11-07T21:29:17.438Z,0
2016-11-07T21:30:27.015Z,0
2016-11-07T21:31:36.959Z,0
2016-11-07T21:32:45.560Z,0
2016-11-07T21:33:54.717Z,0
2016-11-07T21:35:03.640Z,0
2016-11-07T21:36:12.581Z,0
2016-11-07T21:37:21.204Z,0
2016-11-07T21:38:30.157Z,0
2016-11-07T21:39:39.516Z,0
2016-11-07T21:40:48.119Z,0
2016-11-07T21:41:56.746Z,0
2016-11-07T21:43:05.683Z,0
2016-11-07T21:44:14.618Z,0
2016-11-07T21:45:23.606Z,0
2016-11-07T21:46:32.551Z,0
2016-11-07T21:47:41.170Z,0
2016-11-07T21:48:50.475Z,0
2016-11-07T21:49:59.401Z,0
2016-11-07T21:51:08.216Z,0
2016-11-07T21:52:17.493Z,0
2016-11-07T21:53:26.129Z,0
2016-11-07T21:54:35.728Z,0
2016-11-07T21:55:44.970Z,0
2016-11-07T21:56:54.193Z,0
2016-11-07T21:58:03.456Z,0
2016-11-07T21:59:13.041Z,0
2016-11-07T22:00:22.321Z,0
2016-11-07T22:01:30.931Z,0
2016-11-07T22:02:39.930Z,0
2016-11-07T22:03:48.860Z,0
2016-11-07T22:04:57.801Z,0
2016-11-07T22:06:06.734Z,0
2016-11-07T22:07:15.671Z,0
2016-11-07T22:08:24.654Z,0
2016-11-07T22:09:33.581Z,0
2016-11-07T22:10:42.522Z,0
2016-11-07T22:11:51.498Z,0
2016-11-07T22:13:00.119Z,0
2016-11-07T22:14:08.793Z,0
2016-11-07T22:15:17.745Z,0
2016-11-07T22:16:26.678Z,0
2016-11-07T22:17:35.619Z,0
2016-11-07T22:18:44.870Z,0
2016-11-07T22:19:54.174Z,0
2016-11-07T22:21:03.112Z,0
2016-11-07T22:22:12.035Z,0
2016-11-07T22:23:21.305Z,0
2016-11-07T22:24:30.569Z,0
2016-11-07T22:25:39.973Z,0
2016-11-07T22:26:48.908Z,0
2016-11-07T22:27:57.857Z,0
2016-11-07T22:29:06.794Z,0
2016-11-07T22:30:16.100Z,0
2016-11-07T22:31:25.607Z,0
2016-11-07T22:32:34.855Z,0
2016-11-07T22:33:43.780Z,0
2016-11-07T22:34:52.391Z,0
2016-11-07T22:36:01.332Z,0
2016-11-07T22:37:09.994Z,0
2016-11-07T22:38:18.920Z,0
2016-11-07T22:39:28.184Z,0
2016-11-07T22:40:37.118Z,0
2016-11-07T22:41:46.050Z,0
2016-11-07T22:42:55.084Z,0
2016-11-07T22:44:03.701Z,0
2016-11-07T22:45:12.643Z,0
2016-11-07T22:46:21.573Z,0
2016-11-07T22:47:30.506Z,0
2016-11-07T22:48:39.330Z,0
2016-11-07T22:49:48.261Z,0
2016-11-07T22:50:56.878Z,0
2016-11-07T22:52:06.125Z,0
2016-11-07T22:53:15.071Z,0
2016-11-07T22:54:24.537Z,0
2016-11-07T22:55:33.147Z,0
2016-11-07T22:56:41.767Z,0
2016-11-07T22:57:50.702Z,0
2016-11-07T22:59:00.306Z,0
2016-11-07T23:00:09.940Z,0
2016-11-07T23:01:18.554Z,0
2016-11-07T23:02:27.166Z,0
2016-11-07T23:03:36.434Z,0
2016-11-07T23:04:45.068Z,0
2016-11-07T23:05:54.418Z,0
2016-11-07T23:07:03.027Z,0
2016-11-07T23:08:11.956Z,0
2016-11-07T23:09:20.894Z,0
2016-11-07T23:10:29.858Z,0
2016-11-07T23:11:38.889Z,0
2016-11-07T23:12:47.827Z,0
2016-11-07T23:13:56.757Z,0
2016-11-07T23:15:05.366Z,0
2016-11-07T23:16:13.975Z,0
2016-11-07T23:17:22.636Z,0
2016-11-07T23:18:31.255Z,0
2016-11-07T23:19:40.555Z,0
2016-11-07T23:20:49.502Z,0
2016-11-07T23:21:58.119Z,0
2016-11-07T23:23:07.526Z,0
2016-11-07T23:24:16.488Z,0
2016-11-07T23:25:25.743Z,0
2016-11-07T23:26:34.345Z,0
2016-11-07T23:27:43.282Z,0
2016-11-07T23:28:52.424Z,0
2016-11-07T23:30:01.367Z,0
2016-11-07T23:31:10.323Z,0
2016-11-07T23:32:19.579Z,0
2016-11-07T23:33:28.836Z,0
2016-11-07T23:34:38.284Z,0
2016-11-07T23:35:47.545Z,0
2016-11-07T23:36:56.175Z,0
2016-11-07T23:38:05.111Z,0
2016-11-07T23:39:13.727Z,0
2016-11-07T23:40:22.591Z,0
2016-11-07T23:41:31.845Z,0
2016-11-07T23:42:40.825Z,0
2016-11-07T23:43:50.081Z,0
2016-11-07T23:44:58.695Z,0
2016-11-07T23:46:07.408Z,0
2016-11-07T23:47:16.347Z,0
2016-11-07T23:48:25.280Z,0
2016-11-07T23:49:33.893Z,0
2016-11-07T23:50:42.817Z,0
2016-11-07T23:51:51.897Z,0
2016-11-07T23:53:00.840Z,0
2016-11-07T23:54:09.778Z,0
2016-11-07T23:55:18.708Z,0
2016-11-07T23:56:27.964Z,0
2016-11-07T23:57:36.845Z,0
2016-11-07T23:58:46.106Z,0
2016-11-07T23:59:54.716Z,0
